createdAt,value
2019-04-04T00:02:19.690Z,5.37
2019-04-04T00:04:46.832Z,4.60
2019-04-04T00:07:13.078Z,4.70
2019-04-04T00:09:39.850Z,4.70
2019-04-04T00:12:08.063Z,5.10
2019-04-04T00:14:33.474Z,4.90
2019-04-04T00:17:00.344Z,4.00
2019-04-04T00:19:27.908Z,4.80
2019-04-04T00:21:53.882Z,4.17
2019-04-04T00:24:20.679Z,5.40
2019-04-04T00:26:47.450Z,5.50
2019-04-04T00:29:16.834Z,4.73
2019-04-04T00:31:41.031Z,5.30
2019-04-04T00:34:07.810Z,5.90
2019-04-04T00:36:34.840Z,5.30
2019-04-04T00:39:01.374Z,5.70
2019-04-04T00:41:28.134Z,5.43
2019-04-04T00:43:55.026Z,5.10
2019-04-04T00:46:21.806Z,5.20
2019-04-04T00:48:48.590Z,4.83
2019-04-04T00:51:15.370Z,5.17
2019-04-04T00:53:43.001Z,5.60
2019-04-04T00:56:08.930Z,5.90
2019-04-04T00:58:35.721Z,6.00
2019-04-04T01:01:02.510Z,6.20
2019-04-04T01:03:30.054Z,6.30
2019-04-04T01:05:56.063Z,6.90
2019-04-04T01:08:22.874Z,6.60
2019-04-04T01:10:50.223Z,7.37
2019-04-04T01:13:16.468Z,7.20
2019-04-04T01:15:43.237Z,6.97
2019-04-04T01:18:10.088Z,7.50
2019-04-04T01:20:36.826Z,7.50
2019-04-04T01:23:03.630Z,8.57
2019-04-04T01:25:32.612Z,9.00
2019-04-04T01:27:57.173Z,8.10
2019-04-04T01:30:23.946Z,9.33
2019-04-04T01:32:50.759Z,9.33
2019-04-04T01:35:17.499Z,8.87
2019-04-04T01:37:44.282Z,8.50
2019-04-04T01:40:11.043Z,8.30
2019-04-04T01:42:38.719Z,9.20
2019-04-04T01:45:04.754Z,9.98
2019-04-04T01:47:32.380Z,10.30
2019-04-04T01:49:59.114Z,10.48
2019-04-04T01:52:27.856Z,8.70
2019-04-04T01:54:52.614Z,8.78
2019-04-04T01:57:19.335Z,10.90
2019-04-04T01:59:46.101Z,9.60
2019-04-04T02:02:12.915Z,9.90
2019-04-04T02:04:39.671Z,9.83
2019-04-04T02:07:06.422Z,10.80
2019-04-04T02:09:34.618Z,10.85
2019-04-04T02:11:59.874Z,9.13
2019-04-04T02:14:26.635Z,11.40
2019-04-04T02:16:53.358Z,9.37
2019-04-04T02:19:20.100Z,9.00
2019-04-04T02:21:46.821Z,7.83
2019-04-04T02:24:13.566Z,8.70
2019-04-04T02:26:40.398Z,8.00
2019-04-04T02:29:07.158Z,8.80
2019-04-04T02:31:37.295Z,9.10
2019-04-04T02:34:06.244Z,9.10
2019-04-04T02:36:30.768Z,8.27
2019-04-04T02:39:01.961Z,9.50
2019-04-04T02:41:28.703Z,9.13
2019-04-04T02:43:59.381Z,9.13
2019-04-04T02:46:22.158Z,9.93
2019-04-04T02:48:48.910Z,8.67
2019-04-04T02:51:15.650Z,9.87
2019-04-04T02:53:42.518Z,9.07
2019-04-04T02:56:09.266Z,9.60
2019-04-04T02:58:36.014Z,9.00
2019-04-04T03:01:02.771Z,8.87
2019-04-04T03:03:29.514Z,9.27
2019-04-04T03:05:56.254Z,10.40
2019-04-04T03:08:22.987Z,10.70
2019-04-04T03:10:49.723Z,10.30
2019-04-04T03:13:16.452Z,9.50
2019-04-04T03:15:47.204Z,10.47
2019-04-04T03:18:09.965Z,10.47
2019-04-04T03:20:36.797Z,10.40
2019-04-04T03:23:03.513Z,10.60
2019-04-04T03:25:30.261Z,10.80
2019-04-04T03:27:58.278Z,12.63
2019-04-04T03:30:23.746Z,11.80
2019-04-04T03:32:53.906Z,9.33
2019-04-04T03:35:17.214Z,9.63
2019-04-04T03:37:46.197Z,9.70
2019-04-04T03:40:10.690Z,9.33
2019-04-04T03:42:37.425Z,10.90
2019-04-04T03:45:04.411Z,9.67
2019-04-04T03:47:31.140Z,10.27
2019-04-04T03:49:58.095Z,10.10
2019-04-04T03:52:24.657Z,10.30
2019-04-04T03:54:56.301Z,10.30
2019-04-04T03:57:19.710Z,9.00
2019-04-04T03:59:46.446Z,10.20
2019-04-04T04:02:13.201Z,10.87
2019-04-04T04:04:39.926Z,9.90
2019-04-04T04:07:06.663Z,11.03
2019-04-04T04:09:33.411Z,9.50
2019-04-04T04:12:00.166Z,9.30
2019-04-04T04:14:26.898Z,11.70
2019-04-04T04:16:53.656Z,11.00
2019-04-04T04:19:24.025Z,9.97
2019-04-04T04:21:47.155Z,10.03
2019-04-04T04:24:13.877Z,10.20
2019-04-04T04:26:42.007Z,13.30
2019-04-04T04:29:07.435Z,10.63
2019-04-04T04:31:34.188Z,12.60
2019-04-04T04:34:01.786Z,10.80
2019-04-04T04:36:27.663Z,11.30
2019-04-04T04:38:58.910Z,11.47
2019-04-04T04:41:21.451Z,11.73
2019-04-04T04:43:48.048Z,14.20
2019-04-04T04:46:17.816Z,14.10
2019-04-04T04:48:41.531Z,15.45
2019-04-04T04:51:11.530Z,13.40
2019-04-04T04:53:35.036Z,12.00
2019-04-04T04:56:01.899Z,15.53
2019-04-04T04:58:28.639Z,12.60
2019-04-04T05:00:55.398Z,12.30
2019-04-04T05:03:24.031Z,14.47
2019-04-04T05:05:49.048Z,15.48
2019-04-04T05:08:15.795Z,12.53
2019-04-04T05:10:45.593Z,12.33
2019-04-04T05:13:09.270Z,11.47
2019-04-04T05:15:36.106Z,12.13
2019-04-04T05:18:02.842Z,12.03
2019-04-04T05:20:29.915Z,12.47
2019-04-04T05:22:56.305Z,12.30
2019-04-04T05:25:23.046Z,12.97
2019-04-04T05:27:49.835Z,14.00
2019-04-04T05:30:16.779Z,13.57
2019-04-04T05:32:43.300Z,14.10
2019-04-04T05:35:10.028Z,15.00
2019-04-04T05:37:38.215Z,14.50
2019-04-04T05:40:03.723Z,16.00
2019-04-04T05:42:32.811Z,15.77
2019-04-04T05:44:57.373Z,16.83
2019-04-04T05:47:24.158Z,17.20
2019-04-04T05:49:50.850Z,16.40
2019-04-04T05:52:17.614Z,17.40
2019-04-04T05:54:44.396Z,16.40
2019-04-04T05:57:11.115Z,15.00
2019-04-04T05:59:37.843Z,14.83
2019-04-04T06:02:04.607Z,15.07
2019-04-04T06:04:31.464Z,14.90
2019-04-04T06:06:58.239Z,11.73
2019-04-04T06:09:24.947Z,10.47
2019-04-04T06:11:53.138Z,11.67
2019-04-04T06:14:20.600Z,9.87
2019-04-04T06:16:45.190Z,8.43
2019-04-04T06:19:14.128Z,6.53
2019-04-04T06:21:38.694Z,6.90
2019-04-04T06:24:05.458Z,6.27
2019-04-04T06:26:32.206Z,4.40
2019-04-04T06:28:58.943Z,5.70
2019-04-04T06:31:26.523Z,4.77
2019-04-04T06:33:52.426Z,4.67
2019-04-04T06:36:19.162Z,5.20
2019-04-04T06:38:45.923Z,4.50
2019-04-04T06:41:12.666Z,4.50
2019-04-04T06:43:41.455Z,5.50
2019-04-04T06:46:06.142Z,5.50
2019-04-04T06:48:33.756Z,5.33
2019-04-04T06:50:59.670Z,4.50
2019-04-04T06:53:26.426Z,4.03
2019-04-04T06:55:53.166Z,4.80
2019-04-04T06:58:19.906Z,4.30
2019-04-04T07:00:49.876Z,3.70
2019-04-04T07:03:13.390Z,3.70
2019-04-04T07:05:40.128Z,4.20
2019-04-04T07:08:06.889Z,3.40
2019-04-04T07:10:33.617Z,2.83
2019-04-04T07:13:20.206Z,3.50
2019-04-04T07:15:27.086Z,3.37
2019-04-04T07:17:53.846Z,3.60
2019-04-04T07:20:20.582Z,3.80
2019-04-04T07:22:47.327Z,3.80
2019-04-04T07:25:14.058Z,3.57
2019-04-04T07:27:40.803Z,3.13
2019-04-04T07:30:07.538Z,3.00
2019-04-04T07:32:34.397Z,4.20
2019-04-04T07:35:01.134Z,3.10
2019-04-04T07:37:27.883Z,3.40
2019-04-04T07:39:54.652Z,4.10
2019-04-04T07:42:21.397Z,4.83
2019-04-04T07:44:48.133Z,4.97
2019-04-04T07:47:16.145Z,3.77
2019-04-04T07:49:41.599Z,2.60
2019-04-04T07:52:08.341Z,2.20
2019-04-04T07:54:38.069Z,2.00
2019-04-04T07:57:01.806Z,2.30
2019-04-04T07:59:30.922Z,2.03
2019-04-04T08:01:55.361Z,2.00
2019-04-04T08:04:22.102Z,2.10
2019-04-04T08:06:48.850Z,1.97
2019-04-04T08:09:15.609Z,1.67
2019-04-04T08:11:42.353Z,1.80
2019-04-04T08:14:09.102Z,1.50
2019-04-04T08:16:35.834Z,2.40
2019-04-04T08:19:02.561Z,2.03
2019-04-04T08:21:29.390Z,2.10
2019-04-04T08:23:56.161Z,1.90
2019-04-04T08:26:22.890Z,2.00
2019-04-04T08:28:49.654Z,2.03
2019-04-04T08:31:16.401Z,2.50
2019-04-04T08:33:43.134Z,2.50
2019-04-04T08:36:09.874Z,2.03
2019-04-04T08:38:37.157Z,1.87
2019-04-04T08:41:03.910Z,2.10
2019-04-04T08:43:30.662Z,2.60
2019-04-04T08:45:57.421Z,2.47
2019-04-04T08:48:24.154Z,2.30
2019-04-04T08:50:50.922Z,2.83
2019-04-04T08:53:17.662Z,2.30
2019-04-04T08:55:44.402Z,3.30
2019-04-04T08:58:11.130Z,3.33
2019-04-04T09:00:37.887Z,4.37
2019-04-04T09:03:04.599Z,4.80
2019-04-04T09:05:31.346Z,4.10
2019-04-04T09:07:58.107Z,3.40
2019-04-04T09:10:24.854Z,3.00
2019-04-04T09:12:51.603Z,2.80
2019-04-04T09:15:18.349Z,3.23
2019-04-04T09:17:45.207Z,2.73
2019-04-04T09:20:11.954Z,2.40
2019-04-04T09:22:40.852Z,2.07
2019-04-04T09:25:05.614Z,1.77
2019-04-04T09:27:32.345Z,1.50
2019-04-04T09:29:59.102Z,1.90
2019-04-04T09:32:25.839Z,1.77
2019-04-04T09:34:52.595Z,1.50
2019-04-04T09:37:19.351Z,1.70
2019-04-04T09:39:46.110Z,2.00
2019-04-04T09:42:12.842Z,1.90
2019-04-04T09:44:39.574Z,1.70
2019-04-04T09:47:06.315Z,2.13
2019-04-04T09:49:33.055Z,1.90
2019-04-04T09:51:59.782Z,1.80
2019-04-04T09:54:26.539Z,2.10
2019-04-04T09:56:53.261Z,1.60
2019-04-04T09:59:20.015Z,1.67
2019-04-04T10:01:46.760Z,1.60
2019-04-04T10:04:13.488Z,1.90
2019-04-04T10:06:40.238Z,2.00
2019-04-04T10:09:15.704Z,1.83
2019-04-04T10:11:33.782Z,2.20
2019-04-04T10:14:00.614Z,2.10
2019-04-04T10:16:27.383Z,1.70
2019-04-04T10:18:54.139Z,1.87
2019-04-04T10:21:20.894Z,2.10
2019-04-04T10:23:47.630Z,2.30
2019-04-04T10:26:14.386Z,2.40
2019-04-04T10:28:41.137Z,2.00
2019-04-04T10:31:07.903Z,2.53
2019-04-04T10:33:34.620Z,2.85
2019-04-04T10:36:01.486Z,3.30
2019-04-04T10:38:28.214Z,2.63
2019-04-04T10:40:54.999Z,2.90
2019-04-04T10:43:21.726Z,2.00
2019-04-04T10:45:48.479Z,1.80
2019-04-04T10:48:15.227Z,2.40
2019-04-04T10:50:41.986Z,2.60
2019-04-04T10:53:08.726Z,2.20
2019-04-04T10:55:35.475Z,2.47
2019-04-04T10:58:02.219Z,2.40
2019-04-04T11:00:29.000Z,2.47
2019-04-04T11:02:55.746Z,2.43
2019-04-04T11:05:22.655Z,1.97
2019-04-04T11:07:49.394Z,1.90
2019-04-04T11:10:16.138Z,1.80
2019-04-04T11:12:42.895Z,1.57
2019-04-04T11:15:09.658Z,1.60
2019-04-04T11:17:36.422Z,1.60
2019-04-04T11:20:03.821Z,1.63
2019-04-04T11:22:30.564Z,1.50
2019-04-04T11:24:57.444Z,1.33
2019-04-04T11:27:24.226Z,1.30
2019-04-04T11:29:50.991Z,1.10
2019-04-04T11:32:17.726Z,1.00
2019-04-04T11:34:53.017Z,1.47
2019-04-04T11:37:11.204Z,1.47
2019-04-04T11:39:37.961Z,1.60
2019-04-04T11:42:04.706Z,1.60
2019-04-04T11:44:31.438Z,1.57
2019-04-04T11:46:58.197Z,1.27
2019-04-04T11:49:24.942Z,1.40
2019-04-04T11:51:51.694Z,0.80
2019-04-04T11:54:18.423Z,1.30
2019-04-04T11:56:45.179Z,0.93
2019-04-04T11:59:11.915Z,1.30
2019-04-04T12:01:39.846Z,1.00
2019-04-04T12:04:06.574Z,1.00
2019-04-04T12:06:33.334Z,0.90
2019-04-04T12:09:00.085Z,1.30
2019-04-04T12:11:26.842Z,1.00
2019-04-04T12:13:53.567Z,0.90
2019-04-04T12:16:20.307Z,0.80
2019-04-04T12:18:47.038Z,0.90
2019-04-04T12:21:13.888Z,0.90
2019-04-04T12:23:40.614Z,1.00
2019-04-04T12:26:07.354Z,1.20
2019-04-04T12:28:34.138Z,1.23
2019-04-04T12:31:00.886Z,1.27
2019-04-04T12:33:27.723Z,1.80
2019-04-04T12:35:54.475Z,1.30
2019-04-04T12:38:21.218Z,1.50
2019-04-04T12:40:47.988Z,2.13
2019-04-04T12:43:14.722Z,1.53
2019-04-04T12:45:41.463Z,1.40
2019-04-04T12:48:09.229Z,1.20
2019-04-04T12:50:34.940Z,1.17
2019-04-04T12:53:01.770Z,1.50
2019-04-04T12:55:28.525Z,1.20
2019-04-04T12:57:55.263Z,1.60
2019-04-04T13:00:22.002Z,1.77
2019-04-04T13:02:48.759Z,1.57
2019-04-04T13:05:15.608Z,1.80
2019-04-04T13:07:42.380Z,1.70
2019-04-04T13:10:11.831Z,1.63
2019-04-04T13:12:35.862Z,1.77
2019-04-04T13:15:02.642Z,1.30
2019-04-04T13:17:29.393Z,1.80
2019-04-04T13:19:56.146Z,1.60
2019-04-04T13:22:22.906Z,1.50
2019-04-04T13:24:49.653Z,1.60
2019-04-04T13:27:17.738Z,2.00
2019-04-04T13:29:43.192Z,1.80
2019-04-04T13:32:09.931Z,1.47
2019-04-04T13:34:36.661Z,1.30
2019-04-04T13:37:03.400Z,1.97
2019-04-04T13:39:30.123Z,1.80
2019-04-04T13:41:56.893Z,1.27
2019-04-04T13:44:24.116Z,1.10
2019-04-04T13:46:50.424Z,1.60
2019-04-04T13:49:17.154Z,1.17
2019-04-04T13:51:43.920Z,1.00
2019-04-04T13:54:10.678Z,0.90
2019-04-04T13:56:37.434Z,1.37
2019-04-04T13:59:05.929Z,1.67
2019-04-04T14:01:30.957Z,1.20
2019-04-04T14:03:57.699Z,1.17
2019-04-04T14:06:24.490Z,1.30
2019-04-04T14:08:51.260Z,1.70
2019-04-04T14:11:18.020Z,1.30
2019-04-04T14:13:44.779Z,1.70
2019-04-04T14:16:11.526Z,1.27
2019-04-04T14:18:40.079Z,1.57
2019-04-04T14:21:05.069Z,1.80
2019-04-04T14:23:31.830Z,1.50
2019-04-04T14:26:00.051Z,1.70
2019-04-04T14:28:28.141Z,1.70
2019-04-04T14:30:52.122Z,1.80
2019-04-04T14:33:18.896Z,1.93
2019-04-04T14:35:45.715Z,1.10
2019-04-04T14:38:12.501Z,1.20
2019-04-04T14:40:39.258Z,1.20
2019-04-04T14:43:06.014Z,1.30
2019-04-04T14:45:32.878Z,1.10
2019-04-04T14:47:59.665Z,1.20
2019-04-04T14:50:28.064Z,1.40
2019-04-04T14:52:53.186Z,1.00
2019-04-04T14:55:19.934Z,1.00
2019-04-04T14:57:46.682Z,1.30
2019-04-04T15:00:15.819Z,1.20
2019-04-04T15:02:41.669Z,1.40
2019-04-04T15:05:08.402Z,1.47
2019-04-04T15:07:35.378Z,1.27
2019-04-04T15:10:02.150Z,1.23
2019-04-04T15:12:28.950Z,1.00
2019-04-04T15:14:55.711Z,1.00
2019-04-04T15:17:22.470Z,1.07
2019-04-04T15:19:49.237Z,1.07
2019-04-04T15:22:16.049Z,1.00
2019-04-04T15:24:42.810Z,1.10
2019-04-04T15:27:09.543Z,1.10
2019-04-04T15:29:36.295Z,1.00
2019-04-04T15:32:03.039Z,0.90
2019-04-04T15:34:29.870Z,0.90
2019-04-04T15:36:56.595Z,0.97
2019-04-04T15:39:23.346Z,1.27
2019-04-04T15:41:50.158Z,1.00
2019-04-04T15:44:17.001Z,1.00
2019-04-04T15:46:43.734Z,1.00
2019-04-04T15:49:10.491Z,1.10
2019-04-04T15:51:37.218Z,1.27
2019-04-04T15:54:04.070Z,1.13
2019-04-04T15:56:30.806Z,1.67
2019-04-04T15:58:57.545Z,1.40
2019-04-04T16:01:24.270Z,0.70
2019-04-04T16:03:51.047Z,0.90
2019-04-04T16:06:17.798Z,0.90
2019-04-04T16:08:44.546Z,1.03
2019-04-04T16:11:11.279Z,1.40
2019-04-04T16:13:39.549Z,0.90
2019-04-04T16:16:06.518Z,1.30
2019-04-04T16:18:33.241Z,1.57
2019-04-04T16:20:59.964Z,1.80
2019-04-04T16:23:26.706Z,1.70
2019-04-04T16:25:53.436Z,1.90
2019-04-04T16:28:20.178Z,2.20
2019-04-04T16:30:46.922Z,2.20
2019-04-04T16:33:13.653Z,2.23
2019-04-04T16:35:40.390Z,2.33
2019-04-04T16:38:07.117Z,2.00
2019-04-04T16:40:33.861Z,3.13
2019-04-04T16:43:00.594Z,2.10
2019-04-04T16:45:27.442Z,1.73
2019-04-04T16:47:54.157Z,2.20
2019-04-04T16:50:20.910Z,2.10
2019-04-04T16:52:47.650Z,2.13
2019-04-04T16:55:14.390Z,2.17
2019-04-04T16:57:43.354Z,2.40
2019-04-04T17:00:07.982Z,2.10
2019-04-04T17:02:34.706Z,2.30
2019-04-04T17:05:01.457Z,2.33
2019-04-04T17:07:28.202Z,1.70
2019-04-04T17:09:54.965Z,1.40
2019-04-04T17:12:21.702Z,1.23
2019-04-04T17:14:48.462Z,1.73
2019-04-04T17:17:15.198Z,1.30
2019-04-04T17:19:41.947Z,1.25
2019-04-04T17:22:08.686Z,1.67
2019-04-04T17:24:35.450Z,1.37
2019-04-04T17:27:02.226Z,1.30
2019-04-04T17:29:28.966Z,1.70
2019-04-04T17:31:55.990Z,1.37
2019-04-04T17:34:22.530Z,1.40
2019-04-04T17:36:49.283Z,1.33
2019-04-04T17:39:16.121Z,1.43
2019-04-04T17:41:42.850Z,1.83
2019-04-04T17:44:09.582Z,1.50
2019-04-04T17:46:36.752Z,1.60
2019-04-04T17:49:03.360Z,1.67
2019-04-04T17:51:29.914Z,1.50
2019-04-04T17:53:56.920Z,1.57
2019-04-04T17:56:23.744Z,1.93
2019-04-04T17:58:50.383Z,1.33
2019-04-04T18:01:17.165Z,1.60
2019-04-04T18:03:43.948Z,1.33
2019-04-04T18:06:10.734Z,2.03
2019-04-04T18:08:37.510Z,1.67
2019-04-04T18:11:04.522Z,2.33
2019-04-04T18:13:32.302Z,1.93
2019-04-04T18:15:58.094Z,1.70
2019-04-04T18:18:24.850Z,2.07
2019-04-04T18:20:51.634Z,2.80
2019-04-04T18:23:18.415Z,4.47
2019-04-04T18:25:45.194Z,5.80
2019-04-04T18:28:11.954Z,5.97
2019-04-04T18:30:38.834Z,6.07
2019-04-04T18:33:06.137Z,7.37
2019-04-04T18:35:32.537Z,7.20
2019-04-04T18:37:59.082Z,8.63
2019-04-04T18:40:25.834Z,9.80
2019-04-04T18:42:53.950Z,12.67
2019-04-04T18:45:19.334Z,9.60
2019-04-04T18:47:46.142Z,9.37
2019-04-04T18:50:12.897Z,10.20
2019-04-04T18:52:39.654Z,10.03
2019-04-04T18:55:18.782Z,9.77
2019-04-04T18:57:33.185Z,9.87
2019-04-04T18:59:59.934Z,10.13
2019-04-04T19:02:26.691Z,10.90
2019-04-04T19:04:53.469Z,10.70
2019-04-04T19:07:20.252Z,10.83
2019-04-04T19:09:47.067Z,11.00
2019-04-04T19:12:13.895Z,10.90
2019-04-04T19:14:40.614Z,13.00
2019-04-04T19:17:07.434Z,12.73
2019-04-04T19:19:34.172Z,11.93
2019-04-04T19:22:00.951Z,13.20
2019-04-04T19:24:27.707Z,12.77
2019-04-04T19:26:54.478Z,13.23
2019-04-04T19:29:21.229Z,11.53
2019-04-04T19:31:48.016Z,15.13
2019-04-04T19:34:14.782Z,16.30
2019-04-04T19:36:41.960Z,14.57
2019-04-04T19:39:09.832Z,13.70
2019-04-04T19:41:36.574Z,17.05
2019-04-04T19:44:03.318Z,16.27
2019-04-04T19:46:36.860Z,16.03
2019-04-04T19:48:57.608Z,15.00
2019-04-04T19:51:24.413Z,14.33
2019-04-04T19:53:51.167Z,14.33
2019-04-04T19:56:17.992Z,17.00
2019-04-04T19:58:44.730Z,19.57
2019-04-04T20:01:11.507Z,17.07
2019-04-04T20:03:38.246Z,15.33
2019-04-04T20:06:05.026Z,17.90
2019-04-04T20:08:31.815Z,16.70
2019-04-04T20:10:58.565Z,15.40
2019-04-04T20:13:31.096Z,16.10
2019-04-04T20:15:52.106Z,16.00
2019-04-04T20:18:18.869Z,16.23
2019-04-04T20:20:45.594Z,16.37
2019-04-04T20:23:12.346Z,15.70
2019-04-04T20:25:39.111Z,16.40
2019-04-04T20:28:05.910Z,16.20
2019-04-04T20:30:34.898Z,15.80
2019-04-04T20:33:01.667Z,16.77
2019-04-04T20:35:28.419Z,15.50
2019-04-04T20:37:55.202Z,15.40
2019-04-04T20:40:21.938Z,15.50
2019-04-04T20:42:48.700Z,16.37
2019-04-04T20:45:15.450Z,15.67
2019-04-04T20:47:42.215Z,14.90
2019-04-04T20:50:08.962Z,15.77
2019-04-04T20:52:35.714Z,17.50
2019-04-04T20:55:02.458Z,18.30
2019-04-04T20:57:29.215Z,16.53
2019-04-04T20:59:55.982Z,16.23
2019-04-04T21:02:22.750Z,15.27
2019-04-04T21:04:49.538Z,15.37
2019-04-04T21:07:16.329Z,13.77
2019-04-04T21:09:43.107Z,14.60
2019-04-04T21:12:11.319Z,17.97
2019-04-04T21:14:36.657Z,15.53
2019-04-04T21:17:03.474Z,13.17
2019-04-04T21:19:30.309Z,14.30
2019-04-04T21:21:57.099Z,14.63
2019-04-04T21:24:23.836Z,14.80
2019-04-04T21:26:50.628Z,15.10
2019-04-04T21:29:17.394Z,14.03
2019-04-04T21:31:44.150Z,16.83
2019-04-04T21:34:10.921Z,15.23
2019-04-04T21:36:37.680Z,18.50
2019-04-04T21:39:06.270Z,17.43
2019-04-04T21:41:33.046Z,15.00
2019-04-04T21:44:08.807Z,15.77
2019-04-04T21:46:26.618Z,19.00
2019-04-04T21:48:53.394Z,18.00
2019-04-04T21:51:20.181Z,17.87
2019-04-04T21:53:46.952Z,21.03
2019-04-04T21:56:13.746Z,19.30
2019-04-04T21:58:40.508Z,20.70
2019-04-04T22:01:07.327Z,19.17
2019-04-04T22:03:36.576Z,21.77
2019-04-04T22:06:00.886Z,18.63
2019-04-04T22:08:27.696Z,19.07
2019-04-04T22:10:54.476Z,17.17
2019-04-04T22:13:21.250Z,17.13
2019-04-04T22:15:48.030Z,18.10
2019-04-04T22:18:14.816Z,17.07
2019-04-04T22:20:41.617Z,19.40
2019-04-04T22:23:08.446Z,18.30
2019-04-04T22:25:35.205Z,18.43
2019-04-04T22:28:02.013Z,19.00
2019-04-04T22:30:28.767Z,17.43
2019-04-04T22:32:55.555Z,19.10
2019-04-04T22:35:22.311Z,19.40
2019-04-04T22:37:49.104Z,21.07
2019-04-04T22:40:15.862Z,21.80
2019-04-04T22:42:42.639Z,25.50
2019-04-04T22:45:09.406Z,24.73
2019-04-04T22:47:36.155Z,23.33
2019-04-04T22:50:02.953Z,21.60
2019-04-04T22:52:29.779Z,25.97
2019-04-04T22:54:56.515Z,24.27
2019-04-04T22:57:23.253Z,22.10
2019-04-04T22:59:50.029Z,22.17
2019-04-04T23:02:16.803Z,22.30
2019-04-04T23:04:43.578Z,21.97
2019-04-04T23:07:11.282Z,21.70
2019-04-04T23:09:38.191Z,22.00
2019-04-04T23:12:04.950Z,22.57
2019-04-04T23:14:31.744Z,24.90
2019-04-04T23:16:58.505Z,23.50
2019-04-04T23:19:25.278Z,23.20
2019-04-04T23:21:52.035Z,24.50
2019-04-04T23:24:18.799Z,23.00
2019-04-04T23:26:45.530Z,24.80
2019-04-04T23:29:12.304Z,24.57
2019-04-04T23:31:39.051Z,24.60
2019-04-04T23:34:05.841Z,26.00
2019-04-04T23:36:35.258Z,26.77
2019-04-04T23:38:59.487Z,25.00
2019-04-04T23:41:26.231Z,31.70
2019-04-04T23:43:52.970Z,29.70
2019-04-04T23:46:20.164Z,26.27
2019-04-04T23:48:46.955Z,28.23
2019-04-04T23:51:13.706Z,27.57
2019-04-04T23:53:40.547Z,27.03
2019-04-04T23:56:07.310Z,26.93
2019-04-04T23:58:34.070Z,27.30
